sensor_id;sensor_type;location;lat;lon;timestamp;temperature;humidity
67899;DHT22;54699;51.796;10.956;2023-02-15T00:00:08;17.50;54.90
67899;DHT22;54699;51.796;10.956;2023-02-15T00:02:36;17.50;54.90
67899;DHT22;54699;51.796;10.956;2023-02-15T00:05:03;17.40;54.90
67899;DHT22;54699;51.796;10.956;2023-02-15T00:07:30;17.40;54.80
67899;DHT22;54699;51.796;10.956;2023-02-15T00:09:57;17.40;54.80
67899;DHT22;54699;51.796;10.956;2023-02-15T00:12:23;17.40;54.80
67899;DHT22;54699;51.796;10.956;2023-02-15T00:14:51;17.40;54.80
67899;DHT22;54699;51.796;10.956;2023-02-15T00:17:18;17.40;54.80
67899;DHT22;54699;51.796;10.956;2023-02-15T00:19:44;17.40;54.80
67899;DHT22;54699;51.796;10.956;2023-02-15T00:22:11;17.40;54.80
67899;DHT22;54699;51.796;10.956;2023-02-15T00:24:38;17.40;55.10
67899;DHT22;54699;51.796;10.956;2023-02-15T00:27:04;17.40;54.80
67899;DHT22;54699;51.796;10.956;2023-02-15T00:29:31;17.40;54.80
67899;DHT22;54699;51.796;10.956;2023-02-15T00:32:00;17.40;54.80
67899;DHT22;54699;51.796;10.956;2023-02-15T00:34:27;17.40;54.80
67899;DHT22;54699;51.796;10.956;2023-02-15T00:36:54;17.40;54.80
67899;DHT22;54699;51.796;10.956;2023-02-15T00:39:21;17.40;54.80
67899;DHT22;54699;51.796;10.956;2023-02-15T00:41:50;17.40;54.80
67899;DHT22;54699;51.796;10.956;2023-02-15T00:44:17;17.30;54.80
67899;DHT22;54699;51.796;10.956;2023-02-15T00:46:43;17.30;54.80
67899;DHT22;54699;51.796;10.956;2023-02-15T00:49:11;17.30;54.80
67899;DHT22;54699;51.796;10.956;2023-02-15T00:51:38;17.30;54.80
67899;DHT22;54699;51.796;10.956;2023-02-15T00:54:05;17.30;54.80
67899;DHT22;54699;51.796;10.956;2023-02-15T00:56:32;17.30;54.90
67899;DHT22;54699;51.796;10.956;2023-02-15T00:58:59;17.30;54.90
67899;DHT22;54699;51.796;10.956;2023-02-15T01:01:25;17.30;54.80
67899;DHT22;54699;51.796;10.956;2023-02-15T01:03:52;17.30;54.90
67899;DHT22;54699;51.796;10.956;2023-02-15T01:06:21;17.30;54.90
67899;DHT22;54699;51.796;10.956;2023-02-15T01:08:47;17.30;54.80
67899;DHT22;54699;51.796;10.956;2023-02-15T01:11:15;17.20;54.80
67899;DHT22;54699;51.796;10.956;2023-02-15T01:13:47;17.20;54.80
67899;DHT22;54699;51.796;10.956;2023-02-15T01:16:15;17.20;54.80
67899;DHT22;54699;51.796;10.956;2023-02-15T01:18:42;17.20;54.80
67899;DHT22;54699;51.796;10.956;2023-02-15T01:21:10;17.20;54.90
67899;DHT22;54699;51.796;10.956;2023-02-15T01:23:40;17.20;54.80
67899;DHT22;54699;51.796;10.956;2023-02-15T01:26:08;17.20;54.90
67899;DHT22;54699;51.796;10.956;2023-02-15T01:28:35;17.20;54.80
67899;DHT22;54699;51.796;10.956;2023-02-15T01:31:06;17.20;54.80
67899;DHT22;54699;51.796;10.956;2023-02-15T01:33:34;17.20;54.90
67899;DHT22;54699;51.796;10.956;2023-02-15T01:36:01;17.20;54.90
67899;DHT22;54699;51.796;10.956;2023-02-15T01:38:29;17.20;54.80
67899;DHT22;54699;51.796;10.956;2023-02-15T01:40:57;17.20;54.80
67899;DHT22;54699;51.796;10.956;2023-02-15T01:43:45;17.20;54.90
67899;DHT22;54699;51.796;10.956;2023-02-15T01:46:13;17.10;54.90
67899;DHT22;54699;51.796;10.956;2023-02-15T01:48:43;17.20;54.90
67899;DHT22;54699;51.796;10.956;2023-02-15T01:51:13;17.20;55.00
67899;DHT22;54699;51.796;10.956;2023-02-15T01:53:43;17.10;54.80
67899;DHT22;54699;51.796;10.956;2023-02-15T01:56:16;17.10;54.90
67899;DHT22;54699;51.796;10.956;2023-02-15T01:58:46;17.10;54.90
67899;DHT22;54699;51.796;10.956;2023-02-15T02:01:14;17.10;54.80
67899;DHT22;54699;51.796;10.956;2023-02-15T02:03:43;17.10;54.80
67899;DHT22;54699;51.796;10.956;2023-02-15T02:06:19;17.10;54.80
67899;DHT22;54699;51.796;10.956;2023-02-15T02:08:47;17.10;54.80
67899;DHT22;54699;51.796;10.956;2023-02-15T02:11:16;17.10;54.70
67899;DHT22;54699;51.796;10.956;2023-02-15T02:13:43;17.10;54.80
67899;DHT22;54699;51.796;10.956;2023-02-15T02:16:11;17.10;54.80
67899;DHT22;54699;51.796;10.956;2023-02-15T02:18:45;17.10;54.80
67899;DHT22;54699;51.796;10.956;2023-02-15T02:21:33;17.10;55.80
67899;DHT22;54699;51.796;10.956;2023-02-15T02:27:35;17.10;55.70
67899;DHT22;54699;51.796;10.956;2023-02-15T02:30:09;17.00;54.80
67899;DHT22;54699;51.796;10.956;2023-02-15T02:32:58;17.00;54.80
67899;DHT22;54699;51.796;10.956;2023-02-15T02:35:38;17.00;54.80
67899;DHT22;54699;51.796;10.956;2023-02-15T02:38:11;17.00;54.60
67899;DHT22;54699;51.796;10.956;2023-02-15T02:40:50;17.00;54.70
67899;DHT22;54699;51.796;10.956;2023-02-15T02:43:22;17.10;54.70
67899;DHT22;54699;51.796;10.956;2023-02-15T02:45:55;17.00;54.70
67899;DHT22;54699;51.796;10.956;2023-02-15T02:48:27;17.00;54.70
67899;DHT22;54699;51.796;10.956;2023-02-15T02:50:57;17.00;54.60
67899;DHT22;54699;51.796;10.956;2023-02-15T02:53:24;17.00;54.70
67899;DHT22;54699;51.796;10.956;2023-02-15T02:55:52;17.00;55.60
67899;DHT22;54699;51.796;10.956;2023-02-15T02:58:22;17.00;54.60
67899;DHT22;54699;51.796;10.956;2023-02-15T03:00:53;17.00;54.60
67899;DHT22;54699;51.796;10.956;2023-02-15T03:03:24;17.00;54.60
67899;DHT22;54699;51.796;10.956;2023-02-15T03:05:57;16.90;54.70
67899;DHT22;54699;51.796;10.956;2023-02-15T03:08:28;17.00;54.60
67899;DHT22;54699;51.796;10.956;2023-02-15T03:11:00;16.90;54.70
67899;DHT22;54699;51.796;10.956;2023-02-15T03:13:29;16.90;54.60
67899;DHT22;54699;51.796;10.956;2023-02-15T03:15:57;16.90;54.50
67899;DHT22;54699;51.796;10.956;2023-02-15T03:18:47;16.90;54.60
67899;DHT22;54699;51.796;10.956;2023-02-15T03:21:24;16.90;54.50
67899;DHT22;54699;51.796;10.956;2023-02-15T03:23:58;16.90;54.60
67899;DHT22;54699;51.796;10.956;2023-02-15T03:26:30;17.00;54.70
67899;DHT22;54699;51.796;10.956;2023-02-15T03:29:00;16.90;54.60
67899;DHT22;54699;51.796;10.956;2023-02-15T03:31:31;16.90;55.50
67899;DHT22;54699;51.796;10.956;2023-02-15T03:34:03;16.90;54.60
67899;DHT22;54699;51.796;10.956;2023-02-15T03:36:34;16.90;54.60
67899;DHT22;54699;51.796;10.956;2023-02-15T03:39:07;16.90;54.50
67899;DHT22;54699;51.796;10.956;2023-02-15T03:41:39;16.90;54.50
67899;DHT22;54699;51.796;10.956;2023-02-15T03:44:13;16.90;54.60
67899;DHT22;54699;51.796;10.956;2023-02-15T03:46:45;16.90;54.60
67899;DHT22;54699;51.796;10.956;2023-02-15T03:49:20;16.90;54.50
67899;DHT22;54699;51.796;10.956;2023-02-15T03:51:51;16.90;54.50
67899;DHT22;54699;51.796;10.956;2023-02-15T03:54:22;16.90;54.50
67899;DHT22;54699;51.796;10.956;2023-02-15T03:57:10;16.90;54.50
67899;DHT22;54699;51.796;10.956;2023-02-15T03:59:56;16.80;54.40
67899;DHT22;54699;51.796;10.956;2023-02-15T04:02:44;16.80;54.40
67899;DHT22;54699;51.796;10.956;2023-02-15T04:05:20;16.80;54.50
67899;DHT22;54699;51.796;10.956;2023-02-15T04:07:47;16.80;54.40
67899;DHT22;54699;51.796;10.956;2023-02-15T04:10:13;16.80;54.50
67899;DHT22;54699;51.796;10.956;2023-02-15T04:12:58;16.80;54.30
67899;DHT22;54699;51.796;10.956;2023-02-15T04:15:24;16.80;54.30
67899;DHT22;54699;51.796;10.956;2023-02-15T04:18:09;16.80;54.30
67899;DHT22;54699;51.796;10.956;2023-02-15T04:20:37;16.80;54.40
67899;DHT22;54699;51.796;10.956;2023-02-15T04:23:21;16.80;54.40
67899;DHT22;54699;51.796;10.956;2023-02-15T04:26:05;16.80;54.30
67899;DHT22;54699;51.796;10.956;2023-02-15T04:28:31;16.80;54.20
67899;DHT22;54699;51.796;10.956;2023-02-15T04:30:58;16.80;54.30
67899;DHT22;54699;51.796;10.956;2023-02-15T04:33:25;16.80;54.20
67899;DHT22;54699;51.796;10.956;2023-02-15T04:35:53;16.80;54.10
67899;DHT22;54699;51.796;10.956;2023-02-15T04:38:20;16.80;54.10
67899;DHT22;54699;51.796;10.956;2023-02-15T04:40:49;16.70;54.10
67899;DHT22;54699;51.796;10.956;2023-02-15T04:43:16;16.80;54.20
67899;DHT22;54699;51.796;10.956;2023-02-15T04:45:46;16.70;54.10
67899;DHT22;54699;51.796;10.956;2023-02-15T04:48:14;16.80;54.00
67899;DHT22;54699;51.796;10.956;2023-02-15T04:50:40;16.70;54.20
67899;DHT22;54699;51.796;10.956;2023-02-15T04:53:09;16.70;54.20
67899;DHT22;54699;51.796;10.956;2023-02-15T04:55:35;16.70;54.00
67899;DHT22;54699;51.796;10.956;2023-02-15T04:58:02;16.70;54.00
67899;DHT22;54699;51.796;10.956;2023-02-15T05:00:29;16.70;54.00
67899;DHT22;54699;51.796;10.956;2023-02-15T05:02:55;16.80;54.00
67899;DHT22;54699;51.796;10.956;2023-02-15T05:05:22;16.80;53.90
67899;DHT22;54699;51.796;10.956;2023-02-15T05:07:49;16.80;53.80
67899;DHT22;54699;51.796;10.956;2023-02-15T05:10:17;16.80;53.70
67899;DHT22;54699;51.796;10.956;2023-02-15T05:12:44;16.80;53.50
67899;DHT22;54699;51.796;10.956;2023-02-15T05:15:10;16.80;53.60
67899;DHT22;54699;51.796;10.956;2023-02-15T05:17:37;16.80;53.40
67899;DHT22;54699;51.796;10.956;2023-02-15T05:20:04;16.80;53.40
67899;DHT22;54699;51.796;10.956;2023-02-15T05:22:32;16.90;53.30
67899;DHT22;54699;51.796;10.956;2023-02-15T05:24:58;16.90;53.30
67899;DHT22;54699;51.796;10.956;2023-02-15T05:27:44;16.90;53.20
67899;DHT22;54699;51.796;10.956;2023-02-15T05:30:28;16.90;53.10
67899;DHT22;54699;51.796;10.956;2023-02-15T05:32:55;16.90;53.10
67899;DHT22;54699;51.796;10.956;2023-02-15T05:35:21;16.90;53.00
67899;DHT22;54699;51.796;10.956;2023-02-15T05:37:48;16.90;53.00
67899;DHT22;54699;51.796;10.956;2023-02-15T05:40:15;17.00;52.90
67899;DHT22;54699;51.796;10.956;2023-02-15T05:42:42;16.90;52.90
67899;DHT22;54699;51.796;10.956;2023-02-15T05:45:10;16.90;52.80
67899;DHT22;54699;51.796;10.956;2023-02-15T05:47:36;16.90;52.50
67899;DHT22;54699;51.796;10.956;2023-02-15T05:50:04;16.90;53.00
67899;DHT22;54699;51.796;10.956;2023-02-15T05:52:32;16.90;51.90
67899;DHT22;54699;51.796;10.956;2023-02-15T05:55:00;16.90;51.60
67899;DHT22;54699;51.796;10.956;2023-02-15T05:57:27;17.00;51.30
67899;DHT22;54699;51.796;10.956;2023-02-15T05:59:55;17.00;50.70
67899;DHT22;54699;51.796;10.956;2023-02-15T06:02:26;16.90;49.40
67899;DHT22;54699;51.796;10.956;2023-02-15T06:04:53;16.70;50.80
67899;DHT22;54699;51.796;10.956;2023-02-15T06:07:20;16.80;51.50
67899;DHT22;54699;51.796;10.956;2023-02-15T06:09:47;16.80;50.90
67899;DHT22;54699;51.796;10.956;2023-02-15T06:12:14;16.80;51.00
67899;DHT22;54699;51.796;10.956;2023-02-15T06:14:41;16.90;49.10
67899;DHT22;54699;51.796;10.956;2023-02-15T06:17:08;16.90;49.80
67899;DHT22;54699;51.796;10.956;2023-02-15T06:19:36;16.90;50.90
67899;DHT22;54699;51.796;10.956;2023-02-15T06:22:03;17.00;51.40
67899;DHT22;54699;51.796;10.956;2023-02-15T06:24:31;17.10;51.30
67899;DHT22;54699;51.796;10.956;2023-02-15T06:26:58;17.10;52.10
67899;DHT22;54699;51.796;10.956;2023-02-15T06:29:25;17.10;51.10
67899;DHT22;54699;51.796;10.956;2023-02-15T06:31:52;17.10;51.00
67899;DHT22;54699;51.796;10.956;2023-02-15T06:34:18;17.10;50.90
67899;DHT22;54699;51.796;10.956;2023-02-15T06:36:46;17.10;50.90
67899;DHT22;54699;51.796;10.956;2023-02-15T06:39:13;17.10;50.40
67899;DHT22;54699;51.796;10.956;2023-02-15T06:41:40;17.00;50.50
67899;DHT22;54699;51.796;10.956;2023-02-15T06:44:07;16.90;50.80
67899;DHT22;54699;51.796;10.956;2023-02-15T06:46:34;16.90;50.90
67899;DHT22;54699;51.796;10.956;2023-02-15T06:49:01;16.90;50.90
67899;DHT22;54699;51.796;10.956;2023-02-15T06:51:28;16.90;51.00
67899;DHT22;54699;51.796;10.956;2023-02-15T06:53:57;17.00;50.50
67899;DHT22;54699;51.796;10.956;2023-02-15T06:56:25;17.10;49.90
67899;DHT22;54699;51.796;10.956;2023-02-15T06:58:53;17.10;49.40
67899;DHT22;54699;51.796;10.956;2023-02-15T07:01:23;16.80;49.20
67899;DHT22;54699;51.796;10.956;2023-02-15T07:03:50;16.90;49.40
67899;DHT22;54699;51.796;10.956;2023-02-15T07:06:17;17.00;48.40
67899;DHT22;54699;51.796;10.956;2023-02-15T07:08:44;17.00;50.50
67899;DHT22;54699;51.796;10.956;2023-02-15T07:11:12;17.10;50.50
67899;DHT22;54699;51.796;10.956;2023-02-15T07:13:56;17.20;50.30
67899;DHT22;54699;51.796;10.956;2023-02-15T07:16:23;17.20;50.00
67899;DHT22;54699;51.796;10.956;2023-02-15T07:18:50;17.20;49.70
67899;DHT22;54699;51.796;10.956;2023-02-15T07:21:17;17.20;49.70
67899;DHT22;54699;51.796;10.956;2023-02-15T07:23:43;17.20;49.60
67899;DHT22;54699;51.796;10.956;2023-02-15T07:26:12;17.20;49.60
67899;DHT22;54699;51.796;10.956;2023-02-15T07:28:38;17.20;49.60
67899;DHT22;54699;51.796;10.956;2023-02-15T07:31:05;17.30;49.70
67899;DHT22;54699;51.796;10.956;2023-02-15T07:33:32;17.20;49.80
67899;DHT22;54699;51.796;10.956;2023-02-15T07:36:01;17.20;50.00
67899;DHT22;54699;51.796;10.956;2023-02-15T07:38:30;17.20;49.90
67899;DHT22;54699;51.796;10.956;2023-02-15T07:40:58;17.20;50.70
67899;DHT22;54699;51.796;10.956;2023-02-15T07:43:26;17.20;49.80
67899;DHT22;54699;51.796;10.956;2023-02-15T07:45:58;17.20;49.90
67899;DHT22;54699;51.796;10.956;2023-02-15T07:48:25;17.20;50.00
67899;DHT22;54699;51.796;10.956;2023-02-15T07:50:52;17.20;49.80
67899;DHT22;54699;51.796;10.956;2023-02-15T07:53:19;17.20;49.80
67899;DHT22;54699;51.796;10.956;2023-02-15T07:55:46;17.20;49.80
67899;DHT22;54699;51.796;10.956;2023-02-15T07:58:17;17.10;49.20
67899;DHT22;54699;51.796;10.956;2023-02-15T08:00:45;17.10;48.90
67899;DHT22;54699;51.796;10.956;2023-02-15T08:03:27;17.20;48.80
67899;DHT22;54699;51.796;10.956;2023-02-15T08:05:55;17.20;49.50
67899;DHT22;54699;51.796;10.956;2023-02-15T08:08:24;17.20;49.70
67899;DHT22;54699;51.796;10.956;2023-02-15T08:10:58;17.30;49.70
67899;DHT22;54699;51.796;10.956;2023-02-15T08:13:43;17.30;49.60
67899;DHT22;54699;51.796;10.956;2023-02-15T08:16:21;17.30;49.50
67899;DHT22;54699;51.796;10.956;2023-02-15T08:18:48;17.30;49.80
67899;DHT22;54699;51.796;10.956;2023-02-15T08:21:15;17.30;49.70
67899;DHT22;54699;51.796;10.956;2023-02-15T08:23:42;17.30;49.60
67899;DHT22;54699;51.796;10.956;2023-02-15T08:26:09;17.30;49.50
67899;DHT22;54699;51.796;10.956;2023-02-15T08:28:37;17.30;49.70
67899;DHT22;54699;51.796;10.956;2023-02-15T08:31:04;17.30;49.70
67899;DHT22;54699;51.796;10.956;2023-02-15T08:33:33;17.30;49.70
67899;DHT22;54699;51.796;10.956;2023-02-15T08:36:04;17.30;49.80
67899;DHT22;54699;51.796;10.956;2023-02-15T08:38:33;17.40;49.80
67899;DHT22;54699;51.796;10.956;2023-02-15T08:41:08;17.20;50.00
67899;DHT22;54699;51.796;10.956;2023-02-15T08:43:36;17.30;50.00
67899;DHT22;54699;51.796;10.956;2023-02-15T08:46:04;17.40;49.90
67899;DHT22;54699;51.796;10.956;2023-02-15T08:48:33;17.50;49.90
67899;DHT22;54699;51.796;10.956;2023-02-15T08:51:07;17.60;50.10
67899;DHT22;54699;51.796;10.956;2023-02-15T08:53:36;17.70;50.40
67899;DHT22;54699;51.796;10.956;2023-02-15T08:56:05;17.80;50.10
67899;DHT22;54699;51.796;10.956;2023-02-15T08:58:32;18.00;49.60
67899;DHT22;54699;51.796;10.956;2023-02-15T09:01:00;18.00;50.00
67899;DHT22;54699;51.796;10.956;2023-02-15T09:03:29;18.10;49.20
67899;DHT22;54699;51.796;10.956;2023-02-15T09:05:59;18.10;49.50
67899;DHT22;54699;51.796;10.956;2023-02-15T09:08:26;18.10;48.20
67899;DHT22;54699;51.796;10.956;2023-02-15T09:10:54;18.20;49.40
67899;DHT22;54699;51.796;10.956;2023-02-15T09:13:20;18.00;49.30
67899;DHT22;54699;51.796;10.956;2023-02-15T09:15:50;17.90;49.50
67899;DHT22;54699;51.796;10.956;2023-02-15T09:18:17;17.90;49.90
67899;DHT22;54699;51.796;10.956;2023-02-15T09:20:44;17.80;49.80
67899;DHT22;54699;51.796;10.956;2023-02-15T09:23:12;17.80;49.90
67899;DHT22;54699;51.796;10.956;2023-02-15T09:25:40;17.80;49.90
67899;DHT22;54699;51.796;10.956;2023-02-15T09:28:08;17.90;49.80
67899;DHT22;54699;51.796;10.956;2023-02-15T09:30:35;17.80;49.70
67899;DHT22;54699;51.796;10.956;2023-02-15T09:33:02;17.80;49.30
67899;DHT22;54699;51.796;10.956;2023-02-15T09:35:30;17.80;50.40
67899;DHT22;54699;51.796;10.956;2023-02-15T09:37:56;17.90;49.40
67899;DHT22;54699;51.796;10.956;2023-02-15T09:40:24;17.90;49.30
67899;DHT22;54699;51.796;10.956;2023-02-15T09:42:56;17.90;49.10
67899;DHT22;54699;51.796;10.956;2023-02-15T09:45:42;18.00;50.20
67899;DHT22;54699;51.796;10.956;2023-02-15T09:48:23;18.00;48.70
67899;DHT22;54699;51.796;10.956;2023-02-15T09:51:05;18.00;48.60
67899;DHT22;54699;51.796;10.956;2023-02-15T09:53:52;18.00;48.20
67899;DHT22;54699;51.796;10.956;2023-02-15T09:56:37;18.10;47.50
67899;DHT22;54699;51.796;10.956;2023-02-15T09:59:08;18.10;48.90
67899;DHT22;54699;51.796;10.956;2023-02-15T10:01:42;18.10;48.40
67899;DHT22;54699;51.796;10.956;2023-02-15T10:04:20;18.20;48.70
67899;DHT22;54699;51.796;10.956;2023-02-15T10:07:03;18.20;48.40
67899;DHT22;54699;51.796;10.956;2023-02-15T10:09:43;18.30;46.60
67899;DHT22;54699;51.796;10.956;2023-02-15T10:15:25;18.30;44.90
67899;DHT22;54699;51.796;10.956;2023-02-15T10:18:01;18.30;46.50
67899;DHT22;54699;51.796;10.956;2023-02-15T10:20:49;18.40;46.50
67899;DHT22;54699;51.796;10.956;2023-02-15T10:23:26;18.50;46.10
67899;DHT22;54699;51.796;10.956;2023-02-15T10:26:05;18.50;46.20
67899;DHT22;54699;51.796;10.956;2023-02-15T10:28:42;18.50;45.70
67899;DHT22;54699;51.796;10.956;2023-02-15T10:31:14;18.60;45.60
67899;DHT22;54699;51.796;10.956;2023-02-15T10:33:50;18.60;45.80
67899;DHT22;54699;51.796;10.956;2023-02-15T10:36:31;18.50;45.30
67899;DHT22;54699;51.796;10.956;2023-02-15T10:39:12;18.70;46.00
67899;DHT22;54699;51.796;10.956;2023-02-15T10:41:51;18.70;46.20
67899;DHT22;54699;51.796;10.956;2023-02-15T10:44:36;18.90;45.80
67899;DHT22;54699;51.796;10.956;2023-02-15T10:47:19;19.10;44.80
67899;DHT22;54699;51.796;10.956;2023-02-15T10:50:15;19.20;44.20
67899;DHT22;54699;51.796;10.956;2023-02-15T10:53:08;19.40;45.10
67899;DHT22;54699;51.796;10.956;2023-02-15T10:55:47;19.50;46.20
67899;DHT22;54699;51.796;10.956;2023-02-15T10:58:24;19.60;45.80
67899;DHT22;54699;51.796;10.956;2023-02-15T11:01:18;19.70;46.00
67899;DHT22;54699;51.796;10.956;2023-02-15T11:03:56;20.00;45.60
67899;DHT22;54699;51.796;10.956;2023-02-15T11:06:39;20.00;46.40
67899;DHT22;54699;51.796;10.956;2023-02-15T11:09:13;20.10;44.80
67899;DHT22;54699;51.796;10.956;2023-02-15T11:11:47;20.10;45.10
67899;DHT22;54699;51.796;10.956;2023-02-15T11:14:17;20.10;44.70
67899;DHT22;54699;51.796;10.956;2023-02-15T11:16:51;20.10;46.40
67899;DHT22;54699;51.796;10.956;2023-02-15T11:19:21;20.00;42.60
67899;DHT22;54699;51.796;10.956;2023-02-15T11:21:54;19.90;42.60
67899;DHT22;54699;51.796;10.956;2023-02-15T11:24:26;19.90;43.20
67899;DHT22;54699;51.796;10.956;2023-02-15T11:26:56;19.80;42.30
67899;DHT22;54699;51.796;10.956;2023-02-15T11:29:26;19.70;44.20
67899;DHT22;54699;51.796;10.956;2023-02-15T11:32:01;19.70;44.20
67899;DHT22;54699;51.796;10.956;2023-02-15T11:34:40;19.70;45.30
67899;DHT22;54699;51.796;10.956;2023-02-15T11:37:16;19.60;45.60
67899;DHT22;54699;51.796;10.956;2023-02-15T11:39:46;19.70;45.80
67899;DHT22;54699;51.796;10.956;2023-02-15T11:42:17;19.70;45.80
67899;DHT22;54699;51.796;10.956;2023-02-15T11:44:52;19.70;45.70
67899;DHT22;54699;51.796;10.956;2023-02-15T11:47:26;19.60;45.40
67899;DHT22;54699;51.796;10.956;2023-02-15T11:49:54;19.60;44.50
67899;DHT22;54699;51.796;10.956;2023-02-15T11:52:20;19.60;44.40
67899;DHT22;54699;51.796;10.956;2023-02-15T11:54:48;19.50;44.30
67899;DHT22;54699;51.796;10.956;2023-02-15T11:57:17;19.30;42.90
67899;DHT22;54699;51.796;10.956;2023-02-15T11:59:51;19.50;43.70
67899;DHT22;54699;51.796;10.956;2023-02-15T12:02:22;19.60;43.90
67899;DHT22;54699;51.796;10.956;2023-02-15T12:04:54;19.70;44.00
67899;DHT22;54699;51.796;10.956;2023-02-15T12:07:25;19.70;44.80
67899;DHT22;54699;51.796;10.956;2023-02-15T12:09:56;19.70;43.90
67899;DHT22;54699;51.796;10.956;2023-02-15T12:12:30;19.80;44.20
67899;DHT22;54699;51.796;10.956;2023-02-15T12:14:59;19.90;44.50
67899;DHT22;54699;51.796;10.956;2023-02-15T12:17:27;19.90;45.60
67899;DHT22;54699;51.796;10.956;2023-02-15T12:19:59;19.90;45.00
67899;DHT22;54699;51.796;10.956;2023-02-15T12:22:28;20.00;45.50
67899;DHT22;54699;51.796;10.956;2023-02-15T12:24:58;20.00;44.80
67899;DHT22;54699;51.796;10.956;2023-02-15T12:27:27;20.00;45.40
67899;DHT22;54699;51.796;10.956;2023-02-15T12:29:56;20.00;45.50
67899;DHT22;54699;51.796;10.956;2023-02-15T12:32:27;20.10;45.70
67899;DHT22;54699;51.796;10.956;2023-02-15T12:35:00;20.10;45.20
67899;DHT22;54699;51.796;10.956;2023-02-15T12:37:33;20.10;46.20
67899;DHT22;54699;51.796;10.956;2023-02-15T12:40:02;20.10;45.00
67899;DHT22;54699;51.796;10.956;2023-02-15T12:42:45;20.10;44.30
67899;DHT22;54699;51.796;10.956;2023-02-15T12:45:25;20.00;44.50
67899;DHT22;54699;51.796;10.956;2023-02-15T12:48:09;20.10;45.50
67899;DHT22;54699;51.796;10.956;2023-02-15T12:50:42;20.10;45.00
67899;DHT22;54699;51.796;10.956;2023-02-15T12:53:14;20.20;44.60
67899;DHT22;54699;51.796;10.956;2023-02-15T12:55:51;20.30;44.80
67899;DHT22;54699;51.796;10.956;2023-02-15T12:58:20;20.30;45.10
67899;DHT22;54699;51.796;10.956;2023-02-15T13:01:02;20.40;45.60
67899;DHT22;54699;51.796;10.956;2023-02-15T13:03:36;20.40;45.50
67899;DHT22;54699;51.796;10.956;2023-02-15T13:06:06;20.40;45.20
67899;DHT22;54699;51.796;10.956;2023-02-15T13:08:34;20.40;45.70
67899;DHT22;54699;51.796;10.956;2023-02-15T13:11:11;20.50;46.00
67899;DHT22;54699;51.796;10.956;2023-02-15T13:13:46;20.50;46.10
67899;DHT22;54699;51.796;10.956;2023-02-15T13:16:17;20.50;47.00
67899;DHT22;54699;51.796;10.956;2023-02-15T13:18:51;20.50;46.40
67899;DHT22;54699;51.796;10.956;2023-02-15T13:21:24;20.60;46.20
67899;DHT22;54699;51.796;10.956;2023-02-15T13:23:53;20.60;46.10
67899;DHT22;54699;51.796;10.956;2023-02-15T13:26:25;20.60;45.50
67899;DHT22;54699;51.796;10.956;2023-02-15T13:28:56;20.60;45.40
67899;DHT22;54699;51.796;10.956;2023-02-15T13:31:27;20.60;44.50
67899;DHT22;54699;51.796;10.956;2023-02-15T13:33:58;20.60;45.90
67899;DHT22;54699;51.796;10.956;2023-02-15T13:36:30;20.60;45.90
67899;DHT22;54699;51.796;10.956;2023-02-15T13:39:09;20.60;45.80
67899;DHT22;54699;51.796;10.956;2023-02-15T13:41:53;20.70;46.00
67899;DHT22;54699;51.796;10.956;2023-02-15T13:47:28;20.70;45.10
67899;DHT22;54699;51.796;10.956;2023-02-15T13:52:58;20.80;44.50
67899;DHT22;54699;51.796;10.956;2023-02-15T13:55:37;20.80;43.60
67899;DHT22;54699;51.796;10.956;2023-02-15T13:58:23;20.80;45.40
67899;DHT22;54699;51.796;10.956;2023-02-15T14:01:08;20.90;45.40
67899;DHT22;54699;51.796;10.956;2023-02-15T14:03:46;20.90;45.60
67899;DHT22;54699;51.796;10.956;2023-02-15T14:06:34;20.90;45.80
67899;DHT22;54699;51.796;10.956;2023-02-15T14:09:16;20.90;45.70
67899;DHT22;54699;51.796;10.956;2023-02-15T14:11:56;20.90;45.60
67899;DHT22;54699;51.796;10.956;2023-02-15T14:14:37;20.90;45.90
67899;DHT22;54699;51.796;10.956;2023-02-15T14:17:20;20.90;45.60
67899;DHT22;54699;51.796;10.956;2023-02-15T14:19:51;20.80;45.00
67899;DHT22;54699;51.796;10.956;2023-02-15T14:22:25;20.90;44.70
67899;DHT22;54699;51.796;10.956;2023-02-15T14:25:05;20.80;45.90
67899;DHT22;54699;51.796;10.956;2023-02-15T14:27:45;20.80;45.80
67899;DHT22;54699;51.796;10.956;2023-02-15T14:30:22;20.80;45.90
67899;DHT22;54699;51.796;10.956;2023-02-15T14:32:52;20.80;45.40
67899;DHT22;54699;51.796;10.956;2023-02-15T14:35:23;20.80;46.00
67899;DHT22;54699;51.796;10.956;2023-02-15T14:37:57;20.80;46.00
67899;DHT22;54699;51.796;10.956;2023-02-15T14:40:32;20.70;46.40
67899;DHT22;54699;51.796;10.956;2023-02-15T14:43:24;20.70;46.40
67899;DHT22;54699;51.796;10.956;2023-02-15T14:46:00;20.70;46.30
67899;DHT22;54699;51.796;10.956;2023-02-15T14:48:30;20.70;46.40
67899;DHT22;54699;51.796;10.956;2023-02-15T14:50:59;20.80;46.50
67899;DHT22;54699;51.796;10.956;2023-02-15T14:56:20;20.70;46.60
67899;DHT22;54699;51.796;10.956;2023-02-15T15:01:51;20.60;46.90
67899;DHT22;54699;51.796;10.956;2023-02-15T15:04:24;20.70;46.80
67899;DHT22;54699;51.796;10.956;2023-02-15T15:07:03;20.60;46.90
67899;DHT22;54699;51.796;10.956;2023-02-15T15:09:37;20.60;47.00
67899;DHT22;54699;51.796;10.956;2023-02-15T15:12:35;20.60;47.30
67899;DHT22;54699;51.796;10.956;2023-02-15T15:15:04;20.60;47.40
67899;DHT22;54699;51.796;10.956;2023-02-15T15:17:52;20.60;47.70
67899;DHT22;54699;51.796;10.956;2023-02-15T15:20:40;20.60;46.60
67899;DHT22;54699;51.796;10.956;2023-02-15T15:26:20;20.50;46.90
67899;DHT22;54699;51.796;10.956;2023-02-15T15:28:57;20.50;47.20
67899;DHT22;54699;51.796;10.956;2023-02-15T15:31:27;20.50;47.50
67899;DHT22;54699;51.796;10.956;2023-02-15T15:34:17;20.40;47.50
67899;DHT22;54699;51.796;10.956;2023-02-15T15:37:01;20.40;47.80
67899;DHT22;54699;51.796;10.956;2023-02-15T15:39:52;20.40;48.00
67899;DHT22;54699;51.796;10.956;2023-02-15T15:42:42;20.40;48.40
67899;DHT22;54699;51.796;10.956;2023-02-15T15:45:34;20.30;48.20
67899;DHT22;54699;51.796;10.956;2023-02-15T15:51:06;20.20;48.60
67899;DHT22;54699;51.796;10.956;2023-02-15T15:53:40;20.20;49.30
67899;DHT22;54699;51.796;10.956;2023-02-15T15:56:12;20.20;49.90
67899;DHT22;54699;51.796;10.956;2023-02-15T15:58:44;20.10;48.80
67899;DHT22;54699;51.796;10.956;2023-02-15T16:01:20;20.10;50.10
67899;DHT22;54699;51.796;10.956;2023-02-15T16:03:52;20.10;50.50
67899;DHT22;54699;51.796;10.956;2023-02-15T16:06:28;20.00;48.60
67899;DHT22;54699;51.796;10.956;2023-02-15T16:08:58;20.00;50.50